createdAt,value
2022-10-03T00:02:36.022Z,5.51
2022-10-03T00:07:47.105Z,5.53
2022-10-03T00:13:21.279Z,5.47
2022-10-03T00:18:34.337Z,5.39
2022-10-03T00:23:55.751Z,5.23
2022-10-03T00:29:12.329Z,5.29
2022-10-03T00:34:35.614Z,5.23
2022-10-03T00:39:50.879Z,5.30
2022-10-03T00:45:21.185Z,5.30
2022-10-03T00:50:35.722Z,5.28
2022-10-03T00:56:00.888Z,5.33
2022-10-03T01:01:22.101Z,5.26
2022-10-03T01:06:30.753Z,5.18
2022-10-03T01:11:27.188Z,5.20
2022-10-03T01:16:42.574Z,5.22
2022-10-03T01:21:57.874Z,5.17
2022-10-03T01:26:58.683Z,5.10
2022-10-03T01:32:15.020Z,5.12
2022-10-03T01:37:37.953Z,5.15
2022-10-03T01:42:53.051Z,5.22
2022-10-03T01:47:58.425Z,5.33
2022-10-03T01:53:17.755Z,5.32
2022-10-03T01:58:27.352Z,5.39
2022-10-03T02:03:31.721Z,5.48
2022-10-03T02:08:43.717Z,5.65
2022-10-03T02:14:00.879Z,5.85
2022-10-03T02:19:06.882Z,5.98
2022-10-03T02:24:15.186Z,6.00
2022-10-03T02:29:33.038Z,6.14
2022-10-03T02:34:56.884Z,6.18
2022-10-03T02:40:02.124Z,6.31
2022-10-03T02:45:07.710Z,6.52
2022-10-03T02:50:07.036Z,6.68
2022-10-03T02:55:31.210Z,6.84
2022-10-03T03:01:02.655Z,6.91
2022-10-03T03:06:23.343Z,7.05
2022-10-03T03:11:43.844Z,7.12
2022-10-03T03:17:14.170Z,7.17
2022-10-03T03:22:34.970Z,7.08
2022-10-03T03:27:54.253Z,7.25
2022-10-03T03:33:09.358Z,7.32
2022-10-03T03:38:20.537Z,7.42
2022-10-03T03:43:56.079Z,7.50
2022-10-03T03:49:23.380Z,7.56
2022-10-03T03:54:32.840Z,7.66
2022-10-03T04:00:13.106Z,7.71
2022-10-03T04:05:39.161Z,7.80
2022-10-03T04:11:06.862Z,7.91
2022-10-03T04:16:59.304Z,7.93
2022-10-03T04:22:29.975Z,7.95
2022-10-03T04:27:26.307Z,7.94
2022-10-03T04:32:41.881Z,7.97
2022-10-03T04:37:58.592Z,8.01
2022-10-03T04:43:27.303Z,7.90
2022-10-03T04:48:40.173Z,7.84
2022-10-03T04:53:56.788Z,7.83
2022-10-03T04:59:38.836Z,7.82
2022-10-03T05:05:12.934Z,7.85
2022-10-03T05:10:39.850Z,7.88
2022-10-03T05:16:02.378Z,7.97
2022-10-03T05:21:06.071Z,7.98
2022-10-03T05:26:44.087Z,7.95
2022-10-03T05:32:00.938Z,7.97
2022-10-03T05:37:00.255Z,7.99
2022-10-03T05:42:22.777Z,8.02
2022-10-03T05:47:44.874Z,8.07
2022-10-03T05:52:55.834Z,8.07
2022-10-03T05:58:20.421Z,8.03
2022-10-03T06:03:44.132Z,8.06
2022-10-03T06:08:55.537Z,8.06
2022-10-03T06:14:13.889Z,8.07
2022-10-03T06:19:38.326Z,8.06
2022-10-03T06:25:18.389Z,8.01
2022-10-03T06:30:22.403Z,8.05
2022-10-03T06:35:43.525Z,8.16
2022-10-03T06:41:09.206Z,8.09
2022-10-03T06:46:12.098Z,8.12
2022-10-03T06:51:31.126Z,8.08
2022-10-03T06:56:31.836Z,8.09
2022-10-03T07:02:06.474Z,8.04
2022-10-03T07:07:21.605Z,8.17
2022-10-03T07:13:04.927Z,8.21
2022-10-03T07:18:13.728Z,8.39
2022-10-03T07:23:47.730Z,8.45
2022-10-03T07:29:06.187Z,8.32
2022-10-03T07:34:08.349Z,8.35
2022-10-03T07:39:26.111Z,8.27
2022-10-03T07:44:44.126Z,8.25
2022-10-03T07:50:19.721Z,8.25
2022-10-03T07:55:43.160Z,8.22
2022-10-03T08:01:10.438Z,8.35
2022-10-03T08:06:17.240Z,8.32
2022-10-03T08:11:22.785Z,8.33
2022-10-03T08:17:02.814Z,8.47
2022-10-03T08:22:32.810Z,8.55
2022-10-03T08:27:58.815Z,8.57
2022-10-03T08:33:28.384Z,8.60
2022-10-03T08:38:37.517Z,8.77
2022-10-03T08:43:51.916Z,8.81
2022-10-03T08:49:15.180Z,8.91
2022-10-03T08:54:34.081Z,8.76
2022-10-03T09:00:03.830Z,9.19
2022-10-03T09:05:41.940Z,9.36
2022-10-03T09:11:16.701Z,9.37
2022-10-03T09:16:51.346Z,9.42
2022-10-03T09:22:32.877Z,9.67
2022-10-03T09:28:23.166Z,9.85
2022-10-03T09:33:39.721Z,10.38
2022-10-03T09:38:55.233Z,9.95
2022-10-03T09:44:12.849Z,10.07
2022-10-03T09:49:38.813Z,10.25
2022-10-03T09:55:01.499Z,10.63
2022-10-03T10:00:19.174Z,10.85
2022-10-03T10:05:49.373Z,11.14
2022-10-03T10:10:51.833Z,11.11
2022-10-03T10:16:29.824Z,11.28
2022-10-03T10:21:57.065Z,11.29
2022-10-03T10:27:18.015Z,11.79
2022-10-03T10:32:35.757Z,12.07
2022-10-03T10:38:03.326Z,12.20
2022-10-03T10:43:24.440Z,12.55
2022-10-03T10:49:03.519Z,12.81
2022-10-03T10:54:58.723Z,13.20
2022-10-03T11:00:15.254Z,13.18
2022-10-03T11:05:32.147Z,13.52
2022-10-03T11:10:39.613Z,13.64
2022-10-03T11:16:03.511Z,14.10
2022-10-03T11:21:24.396Z,13.99
2022-10-03T11:26:45.916Z,14.54
2022-10-03T11:32:14.330Z,14.40
2022-10-03T11:37:29.796Z,14.05
2022-10-03T11:42:54.213Z,14.29
2022-10-03T11:48:02.320Z,14.95
2022-10-03T11:53:12.098Z,15.12
2022-10-03T11:58:34.763Z,15.08
2022-10-03T12:03:38.740Z,14.77
2022-10-03T12:08:56.366Z,15.08
2022-10-03T12:14:23.510Z,14.92
2022-10-03T12:19:38.560Z,15.17
2022-10-03T12:24:37.445Z,15.36
2022-10-03T12:29:39.025Z,15.05
2022-10-03T12:34:50.297Z,15.20
2022-10-03T12:40:21.744Z,15.26
2022-10-03T12:45:36.216Z,15.21
2022-10-03T12:50:57.613Z,15.06
2022-10-03T12:56:32.070Z,15.07
2022-10-03T13:01:50.038Z,15.09
2022-10-03T13:07:04.070Z,15.04
2022-10-03T13:12:07.608Z,14.87
2022-10-03T13:17:17.850Z,15.07
2022-10-03T13:22:14.140Z,15.05
2022-10-03T13:27:30.301Z,15.18
2022-10-03T13:32:29.465Z,15.30
2022-10-03T13:37:35.646Z,15.64
2022-10-03T13:42:45.236Z,15.27
2022-10-03T13:47:52.042Z,15.09
2022-10-03T13:53:06.944Z,14.95
2022-10-03T13:58:06.087Z,14.99
2022-10-03T14:03:23.780Z,15.34
2022-10-03T14:08:48.167Z,15.56
2022-10-03T14:13:53.482Z,15.31
2022-10-03T14:18:55.897Z,15.04
2022-10-03T14:24:11.235Z,14.84
2022-10-03T14:29:07.637Z,14.68
2022-10-03T14:34:15.350Z,14.60
2022-10-03T14:39:32.335Z,14.53
2022-10-03T14:44:38.923Z,14.54
2022-10-03T14:49:58.899Z,14.42
2022-10-03T14:54:57.395Z,14.40
2022-10-03T14:59:57.903Z,14.37
2022-10-03T15:05:01.860Z,14.34
2022-10-03T15:10:00.303Z,14.36
2022-10-03T15:15:02.911Z,14.42
2022-10-03T15:20:01.581Z,14.38
2022-10-03T15:25:05.916Z,14.36
2022-10-03T15:30:05.616Z,14.32
2022-10-03T15:35:04.362Z,14.28
2022-10-03T15:40:06.601Z,14.35
2022-10-03T15:45:06.648Z,14.36
2022-10-03T15:50:15.245Z,14.34
2022-10-03T15:55:31.490Z,14.29
2022-10-03T16:00:31.127Z,14.23
2022-10-03T16:05:27.812Z,14.20
2022-10-03T16:10:28.229Z,14.13
2022-10-03T16:15:43.552Z,13.97
2022-10-03T16:20:49.990Z,13.90
2022-10-03T16:25:55.615Z,14.01
2022-10-03T16:30:59.433Z,13.93
2022-10-03T16:36:02.929Z,13.54
2022-10-03T16:41:04.086Z,13.22
2022-10-03T16:46:04.928Z,13.09
2022-10-03T16:51:02.978Z,13.04
2022-10-03T16:56:07.200Z,12.74
2022-10-03T17:01:29.575Z,12.50
2022-10-03T17:06:34.936Z,12.20
2022-10-03T17:11:37.420Z,12.01
2022-10-03T17:17:28.168Z,11.82
2022-10-03T17:22:35.335Z,11.76
2022-10-03T17:27:41.414Z,11.60
2022-10-03T17:32:42.420Z,11.39
2022-10-03T17:38:19.701Z,11.18
2022-10-03T17:43:36.529Z,10.92
2022-10-03T17:48:46.264Z,10.70
2022-10-03T17:53:53.182Z,10.50
2022-10-03T17:58:59.942Z,10.39
2022-10-03T18:03:58.506Z,10.19
2022-10-03T18:08:56.126Z,10.08
2022-10-03T18:14:03.910Z,9.98
2022-10-03T18:19:21.744Z,9.74
2022-10-03T18:24:45.718Z,9.63
2022-10-03T18:29:57.479Z,9.58
2022-10-03T18:35:10.869Z,9.36
2022-10-03T18:40:19.898Z,9.23
2022-10-03T18:45:24.090Z,9.10
2022-10-03T18:50:32.622Z,9.01
2022-10-03T18:55:34.884Z,8.98
2022-10-03T19:00:42.455Z,8.99
2022-10-03T19:06:03.472Z,8.92
2022-10-03T19:11:19.522Z,8.81
2022-10-03T19:16:35.337Z,8.83
2022-10-03T19:21:39.211Z,8.66
2022-10-03T19:26:37.015Z,8.52
2022-10-03T19:31:44.142Z,8.37
2022-10-03T19:36:41.924Z,8.29
2022-10-03T19:41:53.354Z,8.23
2022-10-03T19:47:05.466Z,8.20
2022-10-03T19:52:17.283Z,8.14
2022-10-03T19:57:26.196Z,8.06
2022-10-03T20:02:24.933Z,7.97
2022-10-03T20:07:44.862Z,7.88
2022-10-03T20:12:45.552Z,7.79
2022-10-03T20:17:43.709Z,7.68
2022-10-03T20:22:41.710Z,7.75
2022-10-03T20:27:43.622Z,7.77
2022-10-03T20:32:45.317Z,7.70
2022-10-03T20:37:44.769Z,7.53
2022-10-03T20:42:46.901Z,7.44
2022-10-03T20:48:01.009Z,7.44
2022-10-03T20:53:03.728Z,7.34
2022-10-03T20:58:19.025Z,7.31
2022-10-03T21:03:34.998Z,7.19
2022-10-03T21:08:41.606Z,7.09
2022-10-03T21:13:51.924Z,7.05
2022-10-03T21:18:51.142Z,7.16
2022-10-03T21:24:06.711Z,7.10
2022-10-03T21:29:17.064Z,7.07
2022-10-03T21:34:26.511Z,7.05
2022-10-03T21:40:17.150Z,6.89
2022-10-03T21:45:47.666Z,6.81
2022-10-03T21:50:56.906Z,6.74
2022-10-03T21:56:00.189Z,6.92
2022-10-03T22:01:12.830Z,6.95
2022-10-03T22:06:17.456Z,6.95
2022-10-03T22:11:22.746Z,6.92
2022-10-03T22:16:32.487Z,6.84
2022-10-03T22:21:38.821Z,6.85
2022-10-03T22:26:47.920Z,6.86
2022-10-03T22:31:44.373Z,6.83
2022-10-03T22:36:42.288Z,6.78
2022-10-03T22:41:41.406Z,6.72
2022-10-03T22:46:41.918Z,6.79
2022-10-03T22:51:40.952Z,6.96
2022-10-03T22:56:48.118Z,6.99
2022-10-03T23:01:47.129Z,6.94
2022-10-03T23:07:00.391Z,7.03
2022-10-03T23:11:57.615Z,6.95
2022-10-03T23:17:05.054Z,6.98
2022-10-03T23:22:02.290Z,6.96
2022-10-03T23:27:39.654Z,6.73
2022-10-03T23:32:47.945Z,6.79
2022-10-03T23:37:46.965Z,6.75
2022-10-03T23:42:45.109Z,6.79
2022-10-03T23:47:59.417Z,6.98
2022-10-03T23:52:58.459Z,6.93
2022-10-03T23:57:55.611Z,6.93
